Quick Links (Output Below):   Max & Min Temps   /   Climate Reports   /   Zone Forecasts
River Forecasts   /   Forestry Forecasts   /   Aviation Forecasts   /   Radars   /   Features

Terminal Aerodrome Forecast (Jonesboro)

Pick a Site:
Arkadelphia | El Dorado | Fayetteville | Fort Smith | Harrison | Highfill | Hot Springs | Jonesboro
Little Rock | Monticello | Mountain Home | Pine Bluff | Texarkana
 Forecast 

KJBR 251120Z 2512/2612 VRB03KT P6SM SKC
     FM251400 26007KT P6SM SCT050
     FM260000 00000KT P6SM SKC
      TEMPO 2608/2612 1SM BR=


 Latest METARs (Observations) 
How to Decode METARs
14Z KJBR 251353Z AUTO 22006KT 10SM CLR 17/14 A3008 RMK AO2 SLP183
         T01670144
         
13Z KJBR 251253Z AUTO 23005KT 10SM CLR 14/13 A3007 RMK AO2 SLP180
         T01440133
         
12Z KJBR 251153Z AUTO 23005KT 10SM FEW004 14/13 A3007 RMK AO2 SLP181
         T01390128 10167 20128 51005
         
11Z KJBR 251053Z AUTO 22004KT 10SM CLR 14/13 A3006 RMK AO2 SLP178
         T01390128
         
10Z KJBR 250953Z AUTO 23005KT 10SM CLR 14/13 A3006 RMK AO2 SLP176
         T01390128
         
09Z KJBR 250853Z AUTO 23005KT 10SM CLR 15/13 A3006 RMK AO2 SLP176
         T01500128 55004
         
08Z KJBR 250753Z AUTO 25004KT 10SM CLR 16/13 A3006 RMK AO2 SLP176
         T01610133
         
07Z KJBR 250653Z AUTO 24008KT 10SM CLR 17/13 A3006 RMK AO2 SLP177
         T01670133
         
06Z KJBR 250553Z AUTO 24005KT 10SM CLR 17/13 A3007 RMK AO2 SLP180
         T01670128 10178 20150 402330061 55003
         
05Z KJBR 250453Z AUTO 25006KT 10SM CLR 18/13 A3007 RMK AO2 SLP180
         T01780133
         
***** Today's Observations (Above) *****


Back to Main Page
http://www.srh.noaa.gov/lzk/qfcst.php

USA.gov is the U.S. government's official web portal to all federal, state and local government web resources and services.